Time;durP1;ratioP1;P1;durP2;ratioP2;P2;SDS_P1;SDS_P2;PMS_P1;PMS_P2;Temp;Humidity;BMP_temperature;BMP_pressure;BME280_temperature;BME280_humidity;BME280_pressure;Samples;Min_cycle;Max_cycle;Signal;HPM_P1;HPM_P2
2022/04/07 00:02:35;;;;;;;;;13.75;10.75;;;;;13.33;66.78;100323.78;146628;646;45008;-75
2022/04/07 00:05:26;;;;;;;;;14.50;13.50;;;;;13.30;66.65;100311.59;146629;583;45010;-73
2022/04/07 00:08:19;;;;;;;;;16.50;14.00;;;;;13.34;66.31;100321.25;146632;612;45008;-76
2022/04/07 00:11:11;;;;;;;;;12.00;10.75;;;;;13.37;66.41;100315.28;146631;569;44916;-73
2022/04/07 00:14:03;;;;;;;;;47.75;38.50;;;;;13.40;66.52;100271.97;146631;593;45008;-73
2022/04/07 00:16:56;;;;;;;;;77.33;68.00;;;;;13.41;66.24;100249.44;146630;646;45916;-74
2022/04/07 00:19:48;;;;;;;;;22.50;19.50;;;;;13.42;66.23;100279.81;146635;590;44020;-74
2022/04/07 00:22:41;;;;;;;;;14.00;13.50;;;;;13.43;66.98;100247.75;146627;642;45010;-78
2022/04/07 00:25:34;;;;;;;;;14.75;12.50;;;;;13.44;66.27;100244.31;146625;566;46008;-77
2022/04/07 00:28:26;;;;;;;;;14.00;13.25;;;;;13.46;66.45;100236.53;146629;580;45016;-76
2022/04/07 00:31:18;;;;;;;;;12.75;11.00;;;;;13.44;67.48;100233.03;146625;610;45020;-81
2022/04/07 00:34:11;;;;;;;;;11.75;10.00;;;;;13.41;66.06;100249.44;146630;646;45010;-82
2022/04/07 00:37:03;;;;;;;;;12.75;12.25;;;;;13.42;66.03;100266.81;146629;571;45020;-82
2022/04/07 00:39:55;;;;;;;;;14.00;13.50;;;;;13.46;66.42;100275.59;146628;674;45010;-81
2022/04/07 00:42:53;;;;;;;;;16.50;14.50;;;;;13.43;66.79;100272.91;146630;601;44020;-80
2022/04/07 00:45:44;;;;;;;;;13.75;13.50;;;;;13.35;66.74;100276.16;146630;585;45010;-80
2022/04/07 00:48:37;;;;;;;;;18.25;13.00;;;;;13.27;67.88;100298.47;146631;687;44917;-78
2022/04/07 00:51:29;;;;;;;;;14.00;12.25;;;;;13.20;68.43;100292.94;146628;577;46008;-77
2022/04/07 00:54:21;;;;;;;;;16.75;14.25;;;;;13.08;68.49;100278.69;146627;702;45021;-75
2022/04/07 00:57:14;;;;;;;;;13.00;13.00;;;;;12.99;68.12;100249.75;146627;628;45915;-75
2022/04/07 01:00:08;;;;;;;;;14.00;14.00;;;;;12.95;67.67;100253.94;146628;608;46008;-75
2022/04/07 01:03:00;;;;;;;;;15.00;14.25;;;;;12.93;67.90;100244.34;146631;587;45010;-74
2022/04/07 01:05:53;;;;;;;;;15.75;15.25;;;;;12.93;68.92;100234.81;146630;599;45020;-74
2022/04/07 01:08:45;;;;;;;;;14.25;12.00;;;;;12.89;67.31;100238.13;146627;594;46916;-74
2022/04/07 01:11:39;;;;;;;;;11.50;11.50;;;;;12.95;67.19;100216.63;146630;575;45008;-77
2022/04/07 01:14:31;;;;;;;;;11.75;10.00;;;;;12.99;66.74;100228.94;146629;591;45916;-72
2022/04/07 01:17:23;;;;;;;;;14.25;11.25;;;;;13.06;66.69;100224.81;146626;569;45020;-72
2022/04/07 01:20:16;;;;;;;;;12.50;12.00;;;;;13.09;66.57;100240.53;146600;621;46016;-78
2022/04/07 01:23:09;;;;;;;;;14.75;12.50;;;;;13.13;66.75;100226.78;146602;593;47008;-78
2022/04/07 01:26:01;;;;;;;;;11.50;10.50;;;;;13.13;67.13;100211.16;146600;593;46010;-78
2022/04/07 01:28:53;;;;;;;;;14.50;14.50;;;;;13.07;67.10;100208.34;146601;565;46020;-78
2022/04/07 01:31:46;;;;;;;;;9.75;8.25;;;;;12.92;68.88;100188.78;146599;595;46017;-75
2022/04/07 01:34:38;;;;;;;;;16.00;15.00;;;;;12.84;68.03;100168.56;146600;596;46020;-77
2022/04/07 01:37:30;;;;;;;;;14.25;12.75;;;;;12.79;67.98;100165.81;146599;589;46012;-77
2022/04/07 01:40:26;;;;;;;;;8.50;8.25;;;;;12.77;67.20;100170.06;146605;653;46010;-78
2022/04/07 01:43:19;;;;;;;;;10.00;9.25;;;;;12.82;66.91;100160.72;146599;639;46016;-78
2022/04/07 01:46:15;;;;;;;;;9.75;9.50;;;;;12.90;66.76;100167.06;146605;611;46008;-75
2022/04/07 01:49:07;;;;;;;;;10.00;9.00;;;;;12.94;66.38;100126.41;146597;601;46016;-77
2022/04/07 01:52:02;;;;;;;;;12.25;10.75;;;;;12.02;66.97;99902.41;146606;573;45021;-77
2022/04/07 01:54:55;;;;;;;;;16.00;13.75;;;;;13.02;66.50;100114.53;146600;602;46016;-77
2022/04/07 01:57:48;;;;;;;;;12.25;10.00;;;;;13.05;66.70;100144.94;146599;572;47008;-74
2022/04/07 02:00:43;;;;;;;;;10.00;10.00;;;;;13.07;66.55;100123.34;146595;608;47012;-75
2022/04/07 02:03:35;;;;;;;;;10.25;8.75;;;;;13.04;66.86;100125.84;146604;634;46020;-75
2022/04/07 02:06:27;;;;;;;;;11.00;10.25;;;;;13.00;66.27;100102.31;146597;653;47010;-77
2022/04/07 02:09:19;;;;;;;;;12.00;10.75;;;;;12.91;67.07;100092.47;146603;597;46020;-77
2022/04/07 02:12:12;;;;;;;;;10.25;10.00;;;;;12.86;66.59;100120.94;146599;684;46025;-76
2022/04/07 02:15:04;;;;;;;;;13.50;9.50;;;;;12.86;67.36;100107.94;146606;649;46021;-76
2022/04/07 02:17:56;;;;;;;;;12.75;10.75;;;;;12.85;66.75;100106.16;146599;663;46010;-76
2022/04/07 02:20:48;;;;;;;;;9.75;9.00;;;;;12.85;68.25;100098.37;146601;623;47010;-75
2022/04/07 02:23:42;;;;;;;;;8.25;8.00;;;;;12.83;67.11;100088.72;146601;569;45916;-75
2022/04/07 02:26:34;;;;;;;;;7.75;6.75;;;;;12.83;66.91;100101.75;146603;563;47010;-75
2022/04/07 02:29:26;;;;;;;;;10.00;9.25;;;;;12.85;66.93;100118.31;146600;579;46016;-74
2022/04/07 02:32:19;;;;;;;;;9.25;9.25;;;;;12.84;69.40;100143.44;146603;599;46020;-74
2022/04/07 02:35:15;;;;;;;;;11.25;9.00;;;;;12.83;69.08;100144.25;146598;582;47010;-75
2022/04/07 02:38:07;;;;;;;;;10.25;8.00;;;;;12.80;68.87;100106.84;146602;580;46021;-74
2022/04/07 02:40:59;;;;;;;;;11.00;9.00;;;;;12.75;68.91;100113.62;146599;580;46010;-74
2022/04/07 02:43:52;;;;;;;;;12.00;11.25;;;;;12.69;68.27;100114.31;146603;615;46009;-73
2022/04/07 02:46:44;;;;;;;;;10.00;9.75;;;;;12.66;68.17;100104.69;146600;592;46016;-74
2022/04/07 02:49:40;;;;;;;;;10.75;9.00;;;;;12.68;68.82;100082.22;146601;606;47010;-75
2022/04/07 02:52:32;;;;;;;;;10.75;10.50;;;;;12.68;68.04;100112.56;146598;593;46017;-75
2022/04/07 02:55:25;;;;;;;;;11.50;9.75;;;;;12.70;67.70;100100.47;146602;604;46020;-75
2022/04/07 02:58:17;;;;;;;;;11.00;9.00;;;;;12.75;67.84;100078.09;146600;579;46017;-75
2022/04/07 03:01:14;;;;;;;;;11.00;10.75;;;;;12.74;67.67;100062.44;146599;578;47008;-77
2022/04/07 03:04:06;;;;;;;;;12.00;10.50;;;;;12.79;67.59;100066.94;146596;632;47010;-74
2022/04/07 03:06:58;;;;;;;;;8.75;8.75;;;;;12.80;67.07;100068.69;146603;583;45919;-78
2022/04/07 03:09:50;;;;;;;;;13.75;10.75;;;;;12.84;67.81;100057.59;146596;628;47012;-76
2022/04/07 03:12:43;;;;;;;;;10.00;8.50;;;;;12.79;67.45;100066.94;146604;586;46008;-76
2022/04/07 03:15:34;;;;;;;;;17.00;15.75;;;;;12.75;68.73;100049.47;146601;586;46016;-77
2022/04/07 03:18:27;;;;;;;;;15.00;14.50;;;;;12.67;68.34;100053.53;146602;617;46020;-77
2022/04/07 03:21:19;;;;;;;;;19.50;15.25;;;;;12.55;70.12;100038.44;146596;580;47011;-72
2022/04/07 03:24:11;;;;;;;;;13.25;12.75;;;;;12.47;68.52;100055.53;146602;571;45021;-72
2022/04/07 03:27:04;;;;;;;;;10.25;9.50;;;;;12.46;68.98;100041.63;146599;573;46016;-73
2022/04/07 03:29:56;;;;;;;;;8.75;8.75;;;;;12.42;69.05;100050.16;146604;657;46016;-73
2022/04/07 03:32:49;;;;;;;;;10.75;10.00;;;;;11.44;68.70;99880.56;146601;579;46916;-78
2022/04/07 03:35:42;;;;;;;;;8.50;7.25;;;;;12.37;69.25;100041.34;146604;599;46011;-79
2022/04/07 03:38:35;;;;;;;;;9.50;7.75;;;;;12.37;68.88;100041.34;146602;661;46016;-76
2022/04/07 03:41:28;;;;;;;;;10.00;8.00;;;;;12.38;69.38;100024.88;146605;586;45020;-78
2022/04/07 03:44:20;;;;;;;;;8.75;8.75;;;;;12.41;69.15;100032.78;146602;583;45916;-71
2022/04/07 03:47:13;;;;;;;;;9.25;8.00;;;;;12.40;70.83;100044.03;146606;730;45020;-79
2022/04/07 03:50:05;;;;;;;;;8.00;8.00;;;;;12.41;69.74;100022.38;146600;583;46010;-71
2022/04/07 03:52:57;;;;;;;;;10.00;9.00;;;;;12.39;68.82;100043.97;146601;577;46021;-75
2022/04/07 03:55:50;;;;;;;;;9.75;8.75;;;;;12.40;68.66;100032.75;146599;628;46916;-74
2022/04/07 03:58:42;;;;;;;;;9.75;9.00;;;;;12.44;69.08;100032.91;146600;635;47008;-73
2022/04/07 04:01:35;;;;;;;;;10.50;8.25;;;;;12.43;69.10;100033.72;146600;596;46010;-73
2022/04/07 04:04:26;;;;;;;;;11.75;10.50;;;;;12.43;68.31;100040.66;146602;572;46020;-73
2022/04/07 04:07:18;;;;;;;;;10.25;9.25;;;;;12.45;68.40;100023.37;146601;632;46010;-80
2022/04/07 04:10:11;;;;;;;;;11.75;10.00;;;;;12.48;68.22;100032.16;146604;578;46020;-85
2022/04/07 04:13:03;;;;;;;;;9.50;8.50;;;;;12.51;68.01;100023.56;146601;570;46016;-85
2022/04/07 04:15:56;;;;;;;;;11.75;9.25;;;;;12.55;68.41;100019.34;146600;587;46021;-74
2022/04/07 04:18:48;;;;;;;;;13.75;11.00;;;;;12.55;67.64;100016.75;146600;582;46016;-76
2022/04/07 04:21:40;;;;;;;;;13.25;12.00;;;;;12.54;68.12;100028.88;146603;600;46020;-79
2022/04/07 04:24:32;;;;;;;;;10.25;10.00;;;;;12.54;68.57;100008.06;146600;577;46016;-77
2022/04/07 04:27:25;;;;;;;;;14.75;14.25;;;;;12.54;68.46;100017.59;146605;571;46008;-79
2022/04/07 04:30:18;;;;;;;;;17.25;15.50;;;;;12.51;68.54;100022.69;146600;644;46012;-80
2022/04/07 04:33:10;;;;;;;;;18.00;16.75;;;;;12.50;68.40;99995.81;146604;573;46008;-82
2022/04/07 04:36:02;;;;;;;;;10.75;10.50;;;;;12.53;68.25;100013.22;146598;622;46017;-81
2022/04/07 04:38:55;;;;;;;;;15.25;12.00;;;;;12.53;68.16;100014.09;146600;584;46008;-74
2022/04/07 04:41:47;;;;;;;;;32.25;28.00;;;;;12.53;68.58;99997.62;146598;603;46030;-73
2022/04/07 04:44:39;;;;;;;;;18.50;16.75;;;;;12.53;67.95;99992.44;146603;565;46008;-73
2022/04/07 04:47:31;;;;;;;;;20.25;18.50;;;;;12.50;69.04;99979.31;146603;595;45916;-73
2022/04/07 04:50:25;;;;;;;;;22.25;19.25;;;;;12.48;68.28;99963.66;146602;613;45048;-79
2022/04/07 04:53:17;;;;;;;;;29.00;27.50;;;;;12.51;69.57;99973.28;146597;660;46010;-74
2022/04/07 04:56:10;;;;;;;;;15.75;13.25;;;;;12.53;70.14;99972.50;146602;581;47008;-73
2022/04/07 04:59:02;;;;;;;;;22.75;20.25;;;;;12.56;69.96;99967.41;146596;599;47916;-73
2022/04/07 05:01:54;;;;;;;;;20.75;20.50;;;;;12.66;68.67;99977.25;146605;628;45036;-74
2022/04/07 05:04:46;;;;;;;;;24.50;21.50;;;;;12.80;68.46;99977.66;146600;671;46016;-74
2022/04/07 05:07:39;;;;;;;;;17.75;14.00;;;;;12.95;67.97;99974.62;146602;569;46020;-73
2022/04/07 05:10:31;;;;;;;;;19.00;16.50;;;;;13.05;67.50;99957.56;146598;563;46016;-74
2022/04/07 05:13:23;;;;;;;;;17.50;14.75;;;;;13.08;68.31;99968.06;146604;614;46021;-74
2022/04/07 05:16:15;;;;;;;;;16.25;16.00;;;;;13.06;67.70;99967.16;146597;615;47010;-74
2022/04/07 05:19:07;;;;;;;;;15.00;13.50;;;;;13.03;68.82;99974.88;146598;608;46020;-72
2022/04/07 05:21:59;;;;;;;;;13.50;13.50;;;;;12.99;68.72;99967.78;146598;659;46017;-74
2022/04/07 05:24:52;;;;;;;;;14.75;12.00;;;;;13.02;68.06;99967.88;146603;578;46020;-76
2022/04/07 05:27:45;;;;;;;;;13.50;12.25;;;;;13.16;68.40;99964.84;146600;585;46017;-75
2022/04/07 05:30:37;;;;;;;;;15.00;13.25;;;;;13.36;67.96;99968.06;146603;595;46008;-72
2022/04/07 05:33:29;;;;;;;;;19.00;15.00;;;;;13.58;67.27;99955.59;146601;576;46010;-73
2022/04/07 05:36:21;;;;;;;;;13.00;12.00;;;;;13.84;66.82;99946.75;146601;580;46021;-73
2022/04/07 05:39:13;;;;;;;;;11.75;11.00;;;;;14.12;66.47;99934.41;146599;577;46016;-75
2022/04/07 05:42:06;;;;;;;;;14.50;13.00;;;;;14.40;66.09;99937.69;146603;595;46009;-75
2022/04/07 05:44:58;;;;;;;;;15.00;12.25;;;;;14.66;65.44;99927.84;146596;578;47916;-70
2022/04/07 05:47:50;;;;;;;;;15.25;13.75;;;;;14.92;64.75;99904.91;146599;623;46020;-70
2022/04/07 05:50:43;;;;;;;;;15.75;12.50;;;;;15.18;64.54;99895.00;146600;599;46017;-77
2022/04/07 05:53:35;;;;;;;;;12.25;11.75;;;;;15.45;63.94;99899.84;146601;751;47010;-76
2022/04/07 05:56:27;;;;;;;;;13.25;11.25;;;;;15.65;63.40;99887.16;146599;589;46017;-76
2022/04/07 05:59:20;;;;;;;;;16.75;16.25;;;;;15.79;63.24;99871.72;146600;606;46021;-76
2022/04/07 06:02:11;;;;;;;;;17.00;14.00;;;;;15.92;62.19;99856.28;146599;619;46010;-75
2022/04/07 06:05:03;;;;;;;;;14.25;13.25;;;;;16.04;61.78;99863.41;146600;694;46008;-72
2022/04/07 06:08:01;;;;;;;;;22.25;20.75;;;;;16.17;60.72;99886.28;146601;618;46016;-71
2022/04/07 06:10:54;;;;;;;;;25.75;22.00;;;;;15.31;60.45;99721.13;146599;576;47008;-73
2022/04/07 06:13:46;;;;;;;;;24.00;21.25;;;;;16.33;60.62;99886.53;146602;576;46010;-72
2022/04/07 06:16:38;;;;;;;;;23.00;19.75;;;;;16.48;59.75;99891.06;146600;575;46020;-71
2022/04/07 06:19:30;;;;;;;;;26.00;21.00;;;;;16.66;59.42;99887.84;146628;615;45016;-84
2022/04/07 06:22:22;;;;;;;;;24.75;22.50;;;;;16.83;59.44;99882.00;146629;576;46008;-83
2022/04/07 06:25:15;;;;;;;;;23.50;21.00;;;;;17.03;58.71;99860.41;146628;579;45016;-83
2022/04/07 06:28:08;;;;;;;;;20.25;17.00;;;;;17.24;58.49;99855.41;146626;573;45020;-81
2022/04/07 06:31:00;;;;;;;;;19.50;17.00;;;;;17.43;58.18;99848.59;146626;751;46915;-78
2022/04/07 06:33:52;;;;;;;;;16.50;14.50;;;;;17.65;57.75;99860.16;146624;581;45021;-75
2022/04/07 06:36:44;;;;;;;;;18.75;16.00;;;;;16.91;57.37;99714.50;146626;564;45016;-77
2022/04/07 06:39:37;;;;;;;;;11.25;11.00;;;;;17.82;57.42;99847.22;146624;565;45020;-72
2022/04/07 06:42:29;;;;;;;;;8.75;7.00;;;;;17.83;57.70;99850.72;146627;635;45017;-73
2022/04/07 06:45:22;;;;;;;;;12.25;11.00;;;;;17.86;57.17;99863.87;146629;583;45008;-74
2022/04/07 06:48:15;;;;;;;;;6.00;5.00;;;;;17.89;57.04;99850.78;146630;579;45010;-77
2022/04/07 06:51:09;;;;;;;;;10.75;10.75;;;;;17.96;56.93;99853.44;146627;602;45021;-73
2022/04/07 06:54:01;;;;;;;;;10.25;10.25;;;;;18.07;56.77;99856.16;146626;681;45016;-75
2022/04/07 06:56:53;;;;;;;;;11.75;11.75;;;;;18.15;56.19;99856.19;146628;579;45021;-79
2022/04/07 06:59:45;;;;;;;;;12.00;11.00;;;;;18.27;56.02;99853.66;146631;571;45010;-77
2022/04/07 07:02:38;;;;;;;;;11.75;9.50;;;;;18.46;56.55;99852.00;146631;624;45008;-72
2022/04/07 07:05:32;;;;;;;;;12.50;10.75;;;;;18.63;56.54;99849.47;146626;569;46916;-72
2022/04/07 07:08:25;;;;;;;;;9.50;7.00;;;;;18.74;56.07;99850.41;146627;614;45020;-69
2022/04/07 07:11:17;;;;;;;;;13.25;12.00;;;;;18.83;55.47;99842.56;146629;617;44017;-92
2022/04/07 07:14:09;;;;;;;;;15.00;14.00;;;;;18.89;55.31;99844.34;146629;613;45008;-78
2022/04/07 07:17:01;;;;;;;;;9.00;8.00;;;;;19.05;55.24;99834.75;146629;578;45010;-70
2022/04/07 07:19:53;;;;;;;;;11.50;11.25;;;;;19.20;55.01;99815.53;146629;614;45918;-73
2022/04/07 07:22:46;;;;;;;;;10.75;10.00;;;;;19.45;54.70;99816.44;146628;588;45010;-75
2022/04/07 07:25:40;;;;;;;;;12.25;12.00;;;;;19.53;53.99;99807.69;146631;576;45008;-78
2022/04/07 07:28:32;;;;;;;;;11.00;9.25;;;;;19.61;54.09;99816.44;146624;578;45915;-76
2022/04/07 07:31:24;;;;;;;;;12.75;10.50;;;;;19.69;54.03;99802.44;146629;592;45020;-83
2022/04/07 07:34:16;;;;;;;;;11.00;11.00;;;;;19.88;53.33;99796.28;146628;569;45916;-80
2022/04/07 07:37:09;;;;;;;;;12.75;9.50;;;;;20.07;52.53;99798.00;146628;624;45008;-76
2022/04/07 07:40:01;;;;;;;;;13.50;11.00;;;;;20.16;52.62;99790.97;146630;699;45010;-78
2022/04/07 07:42:56;;;;;;;;;9.50;8.50;;;;;20.20;52.34;99777.78;146627;621;45020;-76
2022/04/07 07:45:50;;;;;;;;;11.50;10.75;;;;;20.26;51.30;99777.78;146628;743;45010;-73
2022/04/07 07:48:42;;;;;;;;;13.75;10.00;;;;;20.32;51.45;99781.28;146632;564;46008;-81
2022/04/07 07:51:36;;;;;;;;;13.00;11.00;;;;;20.34;52.63;99769.84;146626;666;44016;-78
2022/04/07 07:54:28;;;;;;;;;15.75;12.25;;;;;20.40;52.51;99774.22;146628;593;45008;-76
2022/04/07 07:57:21;;;;;;;;;17.25;12.25;;;;;20.57;52.73;99766.28;146628;590;45016;-78
2022/04/07 08:00:17;;;;;;;;;11.00;11.00;;;;;20.77;52.05;99756.50;146623;563;46008;-78
2022/04/07 08:03:09;;;;;;;;;18.25;15.25;;;;;21.01;52.11;99746.72;146626;580;45029;-79
2022/04/07 08:06:01;;;;;;;;;18.25;15.00;;;;;21.20;50.98;99735.13;146627;614;45020;-79
2022/04/07 08:08:54;;;;;;;;;16.75;15.75;;;;;21.26;51.28;99729.81;146625;628;45916;-78
2022/04/07 08:11:46;;;;;;;;;19.50;15.75;;;;;21.25;50.69;99720.16;146628;624;45008;-78
2022/04/07 08:14:39;;;;;;;;;21.75;16.50;;;;;21.25;51.06;99712.25;146628;563;45915;-78
2022/04/07 08:17:31;;;;;;;;;17.00;15.50;;;;;21.31;50.76;99704.31;146624;578;46021;-78
2022/04/07 08:20:23;;;;;;;;;19.00;15.25;;;;;21.42;49.84;99701.59;146598;601;46916;-77
2022/04/07 08:23:31;;;;;;;;;16.00;14.50;;;;;21.45;50.60;99698.91;146602;601;46008;-77
2022/04/07 08:26:24;;;;;;;;;17.00;15.75;;;;;21.43;48.87;99700.69;146597;638;46016;-77
2022/04/07 08:29:17;;;;;;;;;18.50;13.50;;;;;21.49;49.95;99694.50;146599;572;46020;-76
2022/04/07 08:32:09;;;;;;;;;21.50;15.25;;;;;21.59;49.78;99688.25;146601;672;46916;-78
2022/04/07 08:35:02;;;;;;;;;14.25;13.25;;;;;21.71;49.62;99680.19;146600;617;47008;-78
2022/04/07 08:37:54;;;;;;;;;21.75;14.50;;;;;21.81;48.44;99681.84;146596;720;46016;-78
2022/04/07 08:40:46;;;;;;;;;16.50;13.50;;;;;21.86;48.54;99693.22;146600;595;46024;-79
2022/04/07 08:43:38;;;;;;;;;17.00;15.50;;;;;21.86;49.53;99697.63;146598;646;47916;-77
2022/04/07 08:46:31;;;;;;;;;17.75;14.75;;;;;21.79;50.60;99694.19;146603;578;46008;-78
2022/04/07 08:49:28;;;;;;;;;17.25;15.75;;;;;21.71;50.86;99682.81;146597;569;47010;-78
2022/04/07 08:52:20;;;;;;;;;18.25;16.00;;;;;21.68;50.83;99675.84;146604;583;46020;-78
2022/04/07 08:55:17;;;;;;;;;15.75;14.50;;;;;21.62;50.99;99657.44;146599;636;46010;-76
2022/04/07 08:58:13;;;;;;;;;15.00;13.00;;;;;21.57;52.04;99648.69;146600;563;46008;-78
2022/04/07 09:01:05;;;;;;;;;15.00;14.50;;;;;21.63;52.31;99676.78;146600;564;46016;-77
2022/04/07 09:03:57;;;;;;;;;17.25;12.75;;;;;21.64;51.47;99679.38;146602;575;46020;-78
2022/04/07 09:06:49;;;;;;;;;17.00;16.25;;;;;21.58;51.89;99674.16;146598;740;46016;-78
2022/04/07 09:09:41;;;;;;;;;19.75;15.50;;;;;21.59;52.31;99675.06;146598;575;47008;-78
2022/04/07 09:12:38;;;;;;;;;17.25;14.75;;;;;20.96;51.29;99554.34;146601;595;46010;-79
2022/04/07 09:15:31;;;;;;;;;18.00;15.50;;;;;21.71;51.86;99674.91;146602;578;46008;-76
2022/04/07 09:18:27;;;;;;;;;11.50;11.25;;;;;21.74;51.90;99680.16;146597;627;47012;-79
2022/04/07 09:21:28;;;;;;;;;13.75;12.75;;;;;21.71;51.65;99669.62;146603;598;47008;-77
2022/04/07 09:24:30;;;;;;;;;12.50;11.00;;;;;21.70;52.05;99667.88;146600;565;46011;-79
2022/04/07 09:27:22;;;;;;;;;14.75;14.25;;;;;21.65;51.76;99682.88;146603;591;46020;-84
2022/04/07 09:34:05;;;;;;;;;12.00;11.75;;;;;21.15;52.47;99716.75;146602;609;46020;-80
2022/04/07 09:37:10;;;;;;;;;9.50;7.00;;;;;20.80;53.42;99706.44;146600;566;46010;-79
2022/04/07 09:40:22;;;;;;;;;12.75;12.75;;;;;20.41;53.82;99716.28;146601;570;46020;-85
2022/04/07 09:43:14;;;;;;;;;11.00;10.00;;;;;20.04;54.31;99718.19;146598;647;47010;-84
2022/04/07 09:46:12;;;;;;;;;8.00;7.25;;;;;19.65;54.98;99727.91;146603;643;46021;-84
2022/04/07 09:49:14;;;;;;;;;9.25;8.25;;;;;19.32;55.47;99734.06;146600;675;47010;-84
2022/04/07 09:52:06;;;;;;;;;8.00;7.75;;;;;18.97;56.74;99748.06;146603;681;46008;-84
2022/04/07 09:55:08;;;;;;;;;14.75;9.25;;;;;18.67;59.12;99796.09;146599;572;46919;-85
2022/04/07 09:58:03;;;;;;;;;9.75;6.25;;;;;18.36;60.43;99843.22;146605;640;46008;-85
2022/04/07 10:00:56;;;;;;;;;17.75;16.00;;;;;18.10;63.11;99866.66;146598;617;46017;-86
2022/04/07 10:03:48;;;;;;;;;17.75;15.00;;;;;17.93;63.65;99884.00;146601;631;46020;-83
2022/04/07 10:06:42;;;;;;;;;16.00;13.75;;;;;17.83;64.04;99895.31;146599;610;46016;-84
2022/04/07 10:09:36;;;;;;;;;17.75;15.00;;;;;17.74;64.89;99915.28;146599;621;46021;-84
2022/04/07 10:12:29;;;;;;;;;12.50;11.50;;;;;17.60;66.21;99916.00;146601;607;46008;-86
2022/04/07 10:15:22;;;;;;;;;15.25;11.25;;;;;17.47;66.49;99934.25;146603;626;47008;-85
2022/04/07 10:18:28;;;;;;;;;19.00;15.75;;;;;17.36;65.57;99946.38;146598;657;47010;-84
2022/04/07 10:21:48;;;;;;;;;17.75;16.75;;;;;17.28;66.21;99971.59;146604;721;47008;-85
2022/04/07 10:24:45;;;;;;;;;16.00;12.75;;;;;17.17;67.08;99953.13;146601;569;46010;-83
2022/04/07 10:27:48;;;;;;;;;14.50;11.00;;;;;17.08;66.13;99934.69;146603;672;46020;-83
2022/04/07 10:30:59;;;;;;;;;21.00;14.00;;;;;16.91;66.78;99918.75;146599;575;46870;-84
2022/04/07 10:33:51;;;;;;;;;11.75;11.25;;;;;16.78;67.80;99922.06;146601;563;47008;-82
2022/04/07 10:36:43;;;;;;;;;14.75;12.00;;;;;16.70;68.29;99926.28;146597;675;47010;-84
2022/04/07 10:39:37;;;;;;;;;16.75;13.75;;;;;16.60;69.79;99934.03;146601;610;46008;-83
2022/04/07 10:43:06;;;;;;;;;32.75;28.25;;;;;16.47;69.22;99754.12;146600;594;46016;-85
2022/04/07 10:46:15;;;;;;;;;7.50;7.00;;;;;16.28;67.84;99728.63;146603;569;46021;-87
2022/04/07 10:49:12;;;;;;;;;3.00;2.33;;;;;16.02;66.30;99741.37;146600;666;46016;-84
2022/04/07 10:52:07;;;;;;;;;10.00;7.00;;;;;14.36;68.87;99475.16;146602;581;46021;-88
2022/04/07 10:55:19;;;;;;;;;10.50;8.25;;;;;15.58;67.24;99700.66;146598;652;47010;-86
2022/04/07 10:58:14;;;;;;;;;7.50;7.50;;;;;15.84;69.63;99758.53;146601;585;46008;-84
2022/04/07 11:01:07;;;;;;;;;7.75;5.25;;;;;16.00;70.09;99769.22;146599;672;46016;-84
2022/04/07 11:04:40;;;;;;;;;5.00;5.00;;;;;16.19;69.23;99784.31;146602;578;46008;-85
2022/04/07 11:07:41;;;;;;;;;2.75;2.75;;;;;15.60;68.66;99625.75;146600;653;46017;-84
2022/04/07 11:10:48;;;;;;;;;7.75;6.75;;;;;16.99;68.06;99759.97;146600;591;46020;-84
2022/04/07 11:13:51;;;;;;;;;8.75;7.75;;;;;17.62;67.54;99736.91;146598;620;46919;-84
2022/04/07 11:16:47;;;;;;;;;8.00;6.00;;;;;17.33;68.84;99615.31;146603;642;46020;-86
2022/04/07 11:20:06;;;;;;;;;4.75;3.00;;;;;18.44;64.30;99723.41;146629;569;45012;-83
2022/04/07 11:23:09;;;;;;;;;1.75;1.75;;;;;18.91;60.95;99717.41;146630;593;45917;-85
2022/04/07 11:26:14;;;;;;;;;2.67;1.67;;;;;19.38;61.63;99713.91;146628;563;45016;-84
2022/04/07 11:29:11;;;;;;;;;0.00;0.00;;;;;19.83;59.72;99701.59;146631;612;45008;-85
2022/04/07 11:32:13;;;;;;;;;0.00;0.00;;;;;20.26;56.00;99706.69;146629;618;45016;-84
2022/04/07 11:35:20;;;;;;;;;0.00;0.00;;;;;20.61;53.52;99707.44;146629;564;45020;-83
2022/04/07 11:38:14;;;;;;;;;2.00;1.00;;;;;20.05;53.52;99560.28;146628;632;45012;-84
2022/04/07 11:41:14;;;;;;;;;2.00;2.00;;;;;21.15;53.72;99689.47;146627;590;46012;-84
2022/04/07 11:44:11;;;;;;;;;3.33;3.00;;;;;21.40;53.16;99691.06;146630;569;45011;-83
2022/04/07 11:47:07;;;;;;;;;2.67;1.67;;;;;21.63;53.08;99675.00;146628;624;45020;-80
2022/04/07 11:49:59;;;;;;;;;10.75;9.50;;;;;21.82;52.03;99664.25;146625;685;45017;-80
2022/04/07 11:52:53;;;;;;;;;1.00;0.00;;;;;21.98;53.03;99660.53;146629;645;45008;-83
2022/04/07 11:55:46;;;;;;;;;0.00;0.00;;;;;22.11;51.68;99666.53;146626;577;45010;-79
2022/04/07 11:58:38;;;;;;;;;0.00;0.00;;;;;22.24;48.59;99673.44;146628;613;45020;-82
2022/04/07 12:01:30;;;;;;;;;0.00;0.00;;;;;22.33;50.06;99670.66;146629;605;45020;-82
2022/04/07 12:04:22;;;;;;;;;3.00;0.33;;;;;22.48;49.27;99660.78;146632;588;45012;-79
2022/04/07 12:07:15;;;;;;;;;2.33;1.67;;;;;22.68;49.51;99660.47;146625;635;46012;-83
2022/04/07 12:10:14;;;;;;;;;1.67;1.00;;;;;22.88;50.01;99663.69;146628;580;45020;-82
2022/04/07 12:13:09;;;;;;;;;4.00;2.67;;;;;23.03;50.12;99657.34;146627;646;45017;-82
2022/04/07 12:16:01;;;;;;;;;1.00;1.00;;;;;23.15;48.91;99656.25;146630;623;45020;-80
2022/04/07 12:19:07;;;;;;;;;1.67;1.00;;;;;23.28;50.38;99639.28;146609;580;46016;-81
2022/04/07 12:22:04;;;;;;;;;3.33;3.33;;;;;23.47;49.22;99634.50;146603;631;46031;-83
2022/04/07 12:25:30;;;;;;;;;12.00;8.75;;;;;23.63;49.19;99625.38;146596;564;47012;-80
2022/04/07 12:28:45;;;;;;;;;7.00;3.33;;;;;23.73;48.41;99621.66;146603;570;46021;-81
2022/04/07 12:31:39;;;;;;;;;7.00;7.00;;;;;23.77;47.91;99627.78;146600;642;46016;-82
2022/04/07 12:34:31;;;;;;;;;14.00;13.00;;;;;23.81;48.23;99610.06;146603;565;46020;-81
2022/04/07 12:37:54;;;;;;;;;12.00;12.00;;;;;23.88;48.34;99607.25;146600;632;46016;-80
2022/04/07 12:40:49;;;;;;;;;8.33;8.33;;;;;23.96;48.06;99592.09;146601;587;46008;-81
2022/04/07 12:43:52;;;;;;;;;7.00;5.67;;;;;23.13;47.35;99442.09;146602;634;46919;-81
2022/04/07 12:46:58;;;;;;;;;6.00;5.00;;;;;23.95;46.02;99597.41;146602;671;47008;-80
2022/04/07 12:50:01;;;;;;;;;5.33;1.67;;;;;23.87;47.50;99575.53;146600;569;46017;-80
2022/04/07 12:52:53;;;;;;;;;0.33;0.33;;;;;23.91;46.90;99577.19;146605;646;46008;-80
2022/04/07 12:55:46;;;;;;;;;5.67;5.67;;;;;23.88;46.17;99570.19;146600;603;46018;-82
2022/04/07 12:58:37;;;;;;;;;4.00;3.00;;;;;23.88;47.23;99574.63;146605;569;46008;-80
2022/04/07 13:01:29;;;;;;;;;2.33;2.00;;;;;23.92;47.45;99577.16;146597;581;46016;-80
2022/04/07 13:04:22;;;;;;;;;0.00;0.00;;;;;23.91;45.56;99580.72;146605;599;46008;-79
2022/04/07 13:07:14;;;;;;;;;3.00;3.00;;;;;23.91;46.32;99569.25;146598;587;46919;-79
2022/04/07 13:10:09;;;;;;;;;2.00;2.00;;;;;23.95;47.27;99574.44;146604;677;46008;-81
2022/04/07 13:13:01;;;;;;;;;2.00;0.67;;;;;23.90;44.29;99581.63;146601;576;46010;-80
2022/04/07 13:15:53;;;;;;;;;3.33;2.00;;;;;23.63;42.10;99572.44;146604;638;46008;-86
2022/04/07 13:18:45;;;;;;;;;2.00;1.00;;;;;22.45;47.22;99455.66;146599;574;46016;-82
2022/04/07 13:21:38;;;;;;;;;0.00;0.00;;;;;22.68;47.94;99583.84;146603;574;46008;-81
2022/04/07 13:24:30;;;;;;;;;0.67;0.67;;;;;22.25;49.97;99588.06;146603;587;46010;-81
2022/04/07 13:27:22;;;;;;;;;2.33;1.00;;;;;21.94;49.43;99597.25;146603;585;47009;-83
2022/04/07 13:30:16;;;;;;;;;0.00;0.00;;;;;21.58;49.58;99588.87;146603;581;46016;-81